createdAt,value
2018-03-02T00:00:06.451Z,79.40
2018-03-02T00:02:34.498Z,79.40
2018-03-02T00:05:03.719Z,79.90
2018-03-02T00:07:31.988Z,80.60
2018-03-02T00:10:00.347Z,82.30
2018-03-02T00:12:28.587Z,80.90
2018-03-02T00:14:56.865Z,80.20
2018-03-02T00:17:25.143Z,80.90
2018-03-02T00:19:54.642Z,81.70
2018-03-02T00:22:22.897Z,81.70
2018-03-02T00:24:51.953Z,81.30
2018-03-02T00:27:21.848Z,81.20
2018-03-02T00:29:50.936Z,80.50
2018-03-02T00:32:19.804Z,81.50
2018-03-02T00:34:49.497Z,80.90
2018-03-02T00:37:17.758Z,81.20
2018-03-02T00:39:46.029Z,81.10
2018-03-02T00:42:14.351Z,82.10
2018-03-02T00:44:43.478Z,83.20
2018-03-02T00:47:12.266Z,83.10
2018-03-02T00:49:40.535Z,83.30
2018-03-02T00:52:09.972Z,83.30
2018-03-02T00:54:38.217Z,82.60
2018-03-02T00:57:07.258Z,82.30
2018-03-02T00:59:35.780Z,82.30
2018-03-02T01:02:04.826Z,82.00
2018-03-02T01:04:33.139Z,82.00
2018-03-02T01:07:01.556Z,82.90
2018-03-02T01:09:30.179Z,82.80
2018-03-02T01:11:58.704Z,82.80
2018-03-02T01:14:26.956Z,83.10
2018-03-02T01:16:57.686Z,81.90
2018-03-02T01:19:25.958Z,81.80
2018-03-02T01:21:54.571Z,82.00
2018-03-02T01:24:22.864Z,83.80
2018-03-02T01:26:51.896Z,83.50
2018-03-02T01:29:20.165Z,83.40
2018-03-02T01:31:48.440Z,82.10
2018-03-02T01:34:16.758Z,83.60
2018-03-02T01:36:44.978Z,84.10
2018-03-02T01:39:13.231Z,82.70
2018-03-02T01:41:42.124Z,83.50
2018-03-02T01:44:12.075Z,88.90
2018-03-02T01:46:40.895Z,88.80
2018-03-02T01:49:09.176Z,84.90
2018-03-02T01:51:49.392Z,84.40
2018-03-02T01:54:17.670Z,89.20
2018-03-02T01:56:45.941Z,88.70
2018-03-02T01:59:15.357Z,88.60
2018-03-02T02:01:45.035Z,88.60
2018-03-02T02:04:13.613Z,90.80
2018-03-02T02:06:42.667Z,91.90
2018-03-02T02:09:10.923Z,91.90
2018-03-02T02:11:39.182Z,89.80
2018-03-02T02:14:07.547Z,88.00
2018-03-02T02:16:35.859Z,89.70
2018-03-02T02:19:04.135Z,90.00
2018-03-02T02:21:32.398Z,90.30
2018-03-02T02:24:01.436Z,89.00
2018-03-02T02:26:29.770Z,89.00
2018-03-02T02:28:58.037Z,91.70
2018-03-02T02:31:27.107Z,91.90
2018-03-02T02:33:55.354Z,91.80
2018-03-02T02:36:25.355Z,91.70
2018-03-02T02:38:54.547Z,90.70
2018-03-02T02:41:22.811Z,90.70
2018-03-02T02:43:52.669Z,91.70
2018-03-02T02:46:20.927Z,91.70
2018-03-02T02:48:49.206Z,91.70
2018-03-02T02:51:17.729Z,90.70
2018-03-02T02:53:46.016Z,90.00
2018-03-02T02:56:14.290Z,89.20
2018-03-02T02:58:42.707Z,90.90
2018-03-02T03:01:12.687Z,91.60
2018-03-02T03:03:40.988Z,91.60
2018-03-02T03:06:09.238Z,92.00
2018-03-02T03:08:37.517Z,90.90
2018-03-02T03:11:05.819Z,90.90
2018-03-02T03:13:34.883Z,91.20
2018-03-02T03:16:03.154Z,91.30
2018-03-02T03:18:31.417Z,91.70
2018-03-02T03:21:00.339Z,91.20
2018-03-02T03:23:28.898Z,91.70
2018-03-02T03:25:57.496Z,92.00
2018-03-02T03:28:25.786Z,91.70
2018-03-02T03:30:54.841Z,92.10
2018-03-02T03:33:23.120Z,92.20
2018-03-02T03:35:51.386Z,92.40
2018-03-02T03:38:19.675Z,92.30
2018-03-02T03:40:47.943Z,92.40
2018-03-02T03:43:16.226Z,92.10
2018-03-02T03:45:44.512Z,92.60
2018-03-02T03:48:12.769Z,92.00
2018-03-02T03:50:41.064Z,92.30
2018-03-02T03:53:09.366Z,92.70
2018-03-02T03:55:37.614Z,92.50
2018-03-02T03:58:05.940Z,92.40
2018-03-02T04:00:34.205Z,92.90
2018-03-02T04:03:03.390Z,92.80
2018-03-02T04:05:32.881Z,93.10
2018-03-02T04:08:01.167Z,93.10
2018-03-02T04:10:29.450Z,92.40
2018-03-02T04:12:57.746Z,93.30
2018-03-02T04:15:26.006Z,91.90
2018-03-02T04:17:54.891Z,93.60
2018-03-02T04:20:23.326Z,92.80
2018-03-02T04:22:52.190Z,92.80
2018-03-02T04:25:20.450Z,93.10
2018-03-02T04:27:49.547Z,93.00
2018-03-02T04:30:17.810Z,92.30
2018-03-02T04:32:46.117Z,92.40
2018-03-02T04:35:14.381Z,91.80
2018-03-02T04:37:42.652Z,92.20
2018-03-02T04:40:10.934Z,92.20
2018-03-02T04:42:39.917Z,92.10
2018-03-02T04:45:08.198Z,92.50
2018-03-02T04:47:36.492Z,91.90
2018-03-02T04:50:04.801Z,91.40
2018-03-02T04:52:33.390Z,92.00
2018-03-02T04:55:02.468Z,92.80
2018-03-02T04:57:30.756Z,92.80
2018-03-02T04:59:59.040Z,92.70
2018-03-02T05:02:27.546Z,92.60
2018-03-02T05:04:56.651Z,92.30
2018-03-02T05:07:25.688Z,92.50
2018-03-02T05:09:53.946Z,92.50
2018-03-02T05:12:22.258Z,92.80
2018-03-02T05:14:50.537Z,92.60
2018-03-02T05:17:18.772Z,91.90
2018-03-02T05:19:47.021Z,91.70
2018-03-02T05:22:15.331Z,91.80
2018-03-02T05:24:43.605Z,91.90
2018-03-02T05:27:12.175Z,91.80
2018-03-02T05:29:41.983Z,91.70
2018-03-02T05:32:11.937Z,92.00
2018-03-02T05:34:44.797Z,92.30
2018-03-02T05:37:14.047Z,92.80
2018-03-02T05:39:42.377Z,92.60
2018-03-02T05:42:10.719Z,92.50
2018-03-02T05:44:39.033Z,92.20
2018-03-02T05:47:08.043Z,92.50
2018-03-02T05:49:36.342Z,92.10
2018-03-02T05:52:04.632Z,92.50
2018-03-02T05:54:32.894Z,92.10
2018-03-02T05:57:01.225Z,91.60
2018-03-02T05:59:29.498Z,92.20
2018-03-02T06:01:58.663Z,92.80
2018-03-02T06:04:26.964Z,92.80
2018-03-02T06:06:56.015Z,91.70
2018-03-02T06:09:24.298Z,91.70
2018-03-02T06:11:52.606Z,91.50
2018-03-02T06:14:21.712Z,90.40
2018-03-02T06:16:50.435Z,90.40
2018-03-02T06:19:18.746Z,90.90
2018-03-02T06:21:47.134Z,91.40
2018-03-02T06:24:15.501Z,91.30
2018-03-02T06:26:43.807Z,90.70
2018-03-02T06:29:12.098Z,90.50
2018-03-02T06:31:41.149Z,90.60
2018-03-02T06:34:09.428Z,90.60
2018-03-02T06:36:37.700Z,91.30
2018-03-02T06:39:06.076Z,91.50
2018-03-02T06:41:36.166Z,91.00
2018-03-02T06:44:04.480Z,91.00
2018-03-02T06:46:32.753Z,90.50
2018-03-02T06:49:01.026Z,90.60
2018-03-02T06:51:29.330Z,90.50
2018-03-02T06:53:57.626Z,90.80
2018-03-02T06:56:26.797Z,91.10
2018-03-02T06:58:55.055Z,91.00
2018-03-02T07:01:23.355Z,91.50
2018-03-02T07:03:51.619Z,90.90
2018-03-02T07:06:19.968Z,90.80
2018-03-02T07:08:48.218Z,90.60
2018-03-02T07:11:17.270Z,91.10
2018-03-02T07:13:46.656Z,91.00
2018-03-02T07:16:14.934Z,91.00
2018-03-02T07:18:43.189Z,90.90
2018-03-02T07:21:11.548Z,90.20
2018-03-02T07:23:39.811Z,90.10
2018-03-02T07:26:08.066Z,90.00
2018-03-02T07:28:36.792Z,89.70
2018-03-02T07:31:05.836Z,88.70
2018-03-02T07:33:34.126Z,88.60
2018-03-02T07:36:02.454Z,88.50
2018-03-02T07:38:30.734Z,88.90
2018-03-02T07:40:59.004Z,89.30
2018-03-02T07:43:27.313Z,89.40
2018-03-02T07:45:55.571Z,90.10
2018-03-02T07:48:24.676Z,90.70
2018-03-02T07:50:52.973Z,90.70
2018-03-02T07:53:21.614Z,90.30
2018-03-02T07:55:49.863Z,90.40
2018-03-02T07:58:18.149Z,89.30
2018-03-02T08:00:46.412Z,88.90
2018-03-02T08:03:14.697Z,88.30
2018-03-02T08:05:42.995Z,89.70
2018-03-02T08:08:11.251Z,88.60
2018-03-02T08:10:39.557Z,89.60
2018-03-02T08:13:07.871Z,89.70
2018-03-02T08:15:36.129Z,88.70
2018-03-02T08:18:05.186Z,88.00
2018-03-02T08:20:33.486Z,88.00
2018-03-02T08:23:02.535Z,87.50
2018-03-02T08:25:30.865Z,87.50
2018-03-02T08:27:59.122Z,85.70
2018-03-02T08:30:27.392Z,85.20
2018-03-02T08:32:56.536Z,83.60
2018-03-02T08:35:24.843Z,83.50
2018-03-02T08:37:53.174Z,84.40
2018-03-02T08:40:23.111Z,82.80
2018-03-02T08:42:51.499Z,82.80
2018-03-02T08:45:19.714Z,81.40
2018-03-02T08:47:48.332Z,81.40
2018-03-02T08:50:17.379Z,80.40
2018-03-02T08:52:45.648Z,80.30
2018-03-02T08:55:13.994Z,78.50
2018-03-02T08:57:42.432Z,80.70
2018-03-02T09:00:10.734Z,82.20
2018-03-02T09:02:39.816Z,79.20
2018-03-02T09:05:08.895Z,78.60
2018-03-02T09:07:37.211Z,78.60
2018-03-02T09:10:05.467Z,77.40
2018-03-02T09:12:33.734Z,76.30
2018-03-02T09:15:02.020Z,75.80
2018-03-02T09:17:30.265Z,75.60
2018-03-02T09:19:58.561Z,74.70
2018-03-02T09:22:27.062Z,74.40
2018-03-02T09:24:56.130Z,71.60
2018-03-02T09:27:24.422Z,71.40
2018-03-02T09:29:52.721Z,71.40
2018-03-02T09:32:20.978Z,72.30
2018-03-02T09:34:49.240Z,70.80
2018-03-02T09:37:17.535Z,68.80
2018-03-02T09:39:46.270Z,71.10
2018-03-02T09:42:15.298Z,68.10
2018-03-02T09:44:43.691Z,68.10
2018-03-02T09:47:11.995Z,70.70
2018-03-02T09:49:40.274Z,67.90
2018-03-02T09:52:09.322Z,66.10
2018-03-02T09:54:37.625Z,66.10
2018-03-02T09:57:05.891Z,66.40
2018-03-02T09:59:34.162Z,65.10
2018-03-02T10:02:03.998Z,63.40
2018-03-02T10:04:32.362Z,63.30
2018-03-02T10:07:00.816Z,62.30
2018-03-02T10:09:29.850Z,62.90
2018-03-02T10:11:59.677Z,62.30
2018-03-02T10:14:27.963Z,61.90
2018-03-02T10:16:56.223Z,62.00
2018-03-02T10:19:24.508Z,61.70
2018-03-02T10:21:52.804Z,61.30
2018-03-02T10:24:21.072Z,61.10
2018-03-02T10:26:49.361Z,62.60
2018-03-02T10:29:17.633Z,63.30
2018-03-02T10:31:45.905Z,60.70
2018-03-02T10:34:14.181Z,61.00
2018-03-02T10:36:42.444Z,61.30
2018-03-02T10:39:11.237Z,62.30
2018-03-02T10:41:40.281Z,61.10
2018-03-02T10:44:09.357Z,61.00
2018-03-02T10:46:38.407Z,64.30
2018-03-02T10:49:06.646Z,64.20
2018-03-02T10:51:35.767Z,63.00
2018-03-02T10:54:04.080Z,62.10
2018-03-02T10:56:33.117Z,61.20
2018-03-02T10:59:01.382Z,61.20
2018-03-02T11:01:30.453Z,61.60
2018-03-02T11:04:00.692Z,61.60
2018-03-02T11:06:28.954Z,61.50
2018-03-02T11:08:57.243Z,62.30
2018-03-02T11:11:26.319Z,61.10
2018-03-02T11:13:54.690Z,60.60
2018-03-02T11:16:22.989Z,60.70
2018-03-02T11:18:51.277Z,60.50
2018-03-02T11:21:20.227Z,60.20
2018-03-02T11:23:48.488Z,62.70
2018-03-02T11:26:17.513Z,59.60
2018-03-02T11:28:45.792Z,59.60
2018-03-02T11:31:14.135Z,59.20
2018-03-02T11:33:42.397Z,59.70
2018-03-02T11:36:10.699Z,60.40
2018-03-02T11:38:38.986Z,59.10
2018-03-02T11:41:08.808Z,57.80
2018-03-02T11:43:37.089Z,57.80
2018-03-02T11:46:05.330Z,57.20
2018-03-02T11:48:33.664Z,58.20
2018-03-02T11:51:02.159Z,57.00
2018-03-02T11:53:30.402Z,56.50
2018-03-02T11:55:58.665Z,55.40
2018-03-02T11:58:27.537Z,55.40
2018-03-02T12:00:55.824Z,55.00
2018-03-02T12:03:24.059Z,55.10
2018-03-02T12:05:53.126Z,54.40
2018-03-02T12:08:21.439Z,54.40
2018-03-02T12:10:49.704Z,54.10
2018-03-02T12:13:17.994Z,54.00
2018-03-02T12:15:46.520Z,53.90
2018-03-02T12:18:14.873Z,53.30
2018-03-02T12:20:43.935Z,53.10
2018-03-02T12:23:12.225Z,53.10
2018-03-02T12:25:40.491Z,51.80
2018-03-02T12:28:08.776Z,52.30
2018-03-02T12:30:37.104Z,52.40
2018-03-02T12:33:06.125Z,53.20
2018-03-02T12:35:34.378Z,53.20
2018-03-02T12:38:03.009Z,53.30
2018-03-02T12:40:31.272Z,52.40
2018-03-02T12:42:59.592Z,53.50
2018-03-02T12:45:27.819Z,52.00
2018-03-02T12:47:56.326Z,51.00
2018-03-02T12:50:24.653Z,52.60
2018-03-02T12:52:52.891Z,52.20
2018-03-02T12:55:21.946Z,51.00
2018-03-02T12:57:50.266Z,50.90
2018-03-02T13:00:19.404Z,50.50
2018-03-02T13:02:47.684Z,50.50
2018-03-02T13:05:15.951Z,50.90
2018-03-02T13:07:44.278Z,50.20
2018-03-02T13:10:12.526Z,50.10
2018-03-02T13:12:40.833Z,49.90
2018-03-02T13:15:09.102Z,48.20
2018-03-02T13:17:37.374Z,48.80
2018-03-02T13:20:05.644Z,48.10
2018-03-02T13:22:41.222Z,47.90
2018-03-02T13:25:10.312Z,48.10
2018-03-02T13:27:50.363Z,48.10
2018-03-02T13:30:18.813Z,46.90
2018-03-02T13:33:09.788Z,46.20
2018-03-02T13:35:38.042Z,47.30
2018-03-02T13:38:06.292Z,47.20
2018-03-02T13:40:46.498Z,47.50
2018-03-02T13:43:14.737Z,47.10
2018-03-02T13:45:43.071Z,46.90
2018-03-02T13:51:14.183Z,47.10
2018-03-02T13:53:42.450Z,46.70
2018-03-02T13:56:22.882Z,46.70
2018-03-02T13:58:51.878Z,46.30
2018-03-02T14:01:20.159Z,46.30
2018-03-02T14:04:00.385Z,46.90
2018-03-02T14:06:28.646Z,46.90
2018-03-02T14:08:56.938Z,47.60
2018-03-02T14:11:25.994Z,46.60
2018-03-02T14:13:54.245Z,46.60
2018-03-02T14:16:22.514Z,46.70
2018-03-02T14:18:50.808Z,47.00
2018-03-02T14:21:19.076Z,47.60
2018-03-02T14:23:47.339Z,47.10
2018-03-02T14:26:16.438Z,46.80
2018-03-02T14:28:45.521Z,48.40
2018-03-02T14:31:13.755Z,48.40
2018-03-02T14:33:42.060Z,48.20
2018-03-02T14:36:10.320Z,48.20
2018-03-02T14:38:38.596Z,48.50
2018-03-02T14:41:06.866Z,47.70
2018-03-02T14:43:35.161Z,48.00
2018-03-02T14:46:03.461Z,49.00
2018-03-02T14:48:31.747Z,50.30
2018-03-02T14:51:00.216Z,49.90
2018-03-02T14:53:29.514Z,49.40
2018-03-02T14:55:58.743Z,49.00
2018-03-02T14:58:27.866Z,48.30
2018-03-02T15:00:56.498Z,48.20
2018-03-02T15:03:24.769Z,48.00
2018-03-02T15:05:53.076Z,50.00
2018-03-02T15:08:22.166Z,49.70
2018-03-02T15:10:51.199Z,48.60
2018-03-02T15:13:19.506Z,48.60
2018-03-02T15:15:47.769Z,47.30
2018-03-02T15:18:16.077Z,48.10
2018-03-02T15:20:44.366Z,48.70
2018-03-02T15:23:13.535Z,47.80
2018-03-02T15:25:41.837Z,47.80
2018-03-02T15:28:10.127Z,48.80
2018-03-02T15:30:38.447Z,48.60
2018-03-02T15:33:06.711Z,49.10
2018-03-02T15:35:34.994Z,50.00
2018-03-02T15:38:03.272Z,48.90
2018-03-02T15:40:31.575Z,49.20
2018-03-02T15:42:59.926Z,50.00
2018-03-02T15:45:28.196Z,49.20
2018-03-02T15:47:56.458Z,49.40
2018-03-02T15:50:25.486Z,49.40
2018-03-02T15:52:53.745Z,49.40
2018-03-02T15:55:22.848Z,49.90
2018-03-02T15:57:51.188Z,49.50
2018-03-02T16:00:19.464Z,50.30
2018-03-02T16:02:48.513Z,51.20
2018-03-02T16:05:16.910Z,51.20
2018-03-02T16:07:45.234Z,51.40
2018-03-02T16:10:14.548Z,51.30
2018-03-02T16:12:43.709Z,50.70
2018-03-02T16:15:11.970Z,52.10
2018-03-02T16:17:40.285Z,51.40
2018-03-02T16:20:08.729Z,51.80
2018-03-02T16:22:37.053Z,51.60
2018-03-02T16:25:06.160Z,52.70
2018-03-02T16:27:34.468Z,52.70
2018-03-02T16:30:02.726Z,53.90
2018-03-02T16:32:31.007Z,54.00
2018-03-02T16:34:59.264Z,55.20
2018-03-02T16:37:27.613Z,55.10
2018-03-02T16:39:56.676Z,54.60
2018-03-02T16:42:25.110Z,54.80
2018-03-02T16:44:53.482Z,56.10
2018-03-02T16:47:21.757Z,55.80
2018-03-02T16:49:50.779Z,55.90
2018-03-02T16:52:19.094Z,55.80
2018-03-02T16:54:47.368Z,56.70
2018-03-02T16:57:15.625Z,56.80
2018-03-02T16:59:43.937Z,57.30
2018-03-02T17:02:12.264Z,58.10
2018-03-02T17:04:44.135Z,59.00
2018-03-02T17:07:13.920Z,59.60
2018-03-02T17:09:42.224Z,59.60
2018-03-02T17:12:11.262Z,59.20
2018-03-02T17:14:40.273Z,59.20
2018-03-02T17:17:09.424Z,59.70
2018-03-02T17:19:37.727Z,59.50
2018-03-02T17:22:06.239Z,61.20
2018-03-02T17:24:34.525Z,61.40
2018-03-02T17:27:04.595Z,61.60
2018-03-02T17:29:32.912Z,61.50
2018-03-02T17:32:01.146Z,61.50
2018-03-02T17:34:30.103Z,62.50
2018-03-02T17:36:58.431Z,62.60
2018-03-02T17:39:26.703Z,63.50
2018-03-02T17:41:54.988Z,63.30
2018-03-02T17:44:23.290Z,64.60
2018-03-02T17:46:51.707Z,64.50
2018-03-02T17:49:20.736Z,64.30
2018-03-02T17:51:50.127Z,64.20
2018-03-02T17:54:18.388Z,64.50
2018-03-02T17:56:46.801Z,64.90
2018-03-02T17:59:15.994Z,66.20
2018-03-02T18:01:45.172Z,66.70
2018-03-02T18:04:13.478Z,66.60
2018-03-02T18:06:41.710Z,67.60
2018-03-02T18:09:10.768Z,68.20
2018-03-02T18:11:39.150Z,68.20
2018-03-02T18:14:07.512Z,67.50
2018-03-02T18:16:35.855Z,69.70
2018-03-02T18:19:04.978Z,69.40
2018-03-02T18:21:33.280Z,69.40
2018-03-02T18:24:01.636Z,70.30
2018-03-02T18:26:29.948Z,69.80
2018-03-02T18:28:58.266Z,69.70
2018-03-02T18:31:27.352Z,70.70
2018-03-02T18:33:55.634Z,70.60
2018-03-02T18:36:24.682Z,70.60
2018-03-02T18:38:52.971Z,70.50
2018-03-02T18:41:21.276Z,70.30
2018-03-02T18:43:49.622Z,70.00
2018-03-02T18:46:17.968Z,69.40
2018-03-02T18:48:46.322Z,69.70
2018-03-02T18:51:14.687Z,70.10
2018-03-02T18:53:42.961Z,70.20
2018-03-02T18:56:11.718Z,69.60
2018-03-02T18:58:40.338Z,69.10
2018-03-02T19:01:08.631Z,69.40
2018-03-02T19:03:37.011Z,69.10
2018-03-02T19:06:05.384Z,69.80
2018-03-02T19:08:33.892Z,70.20
2018-03-02T19:11:02.218Z,69.90
2018-03-02T19:13:31.349Z,70.60
2018-03-02T19:16:00.734Z,70.90
2018-03-02T19:18:29.086Z,70.80
2018-03-02T19:20:57.450Z,71.70
2018-03-02T19:23:25.770Z,71.20
2018-03-02T19:25:54.372Z,72.10
2018-03-02T19:28:24.299Z,73.10
2018-03-02T19:30:53.297Z,73.10
2018-03-02T19:33:23.725Z,72.50
2018-03-02T19:35:52.175Z,72.30
2018-03-02T19:38:21.581Z,73.80
2018-03-02T19:40:50.588Z,73.80
2018-03-02T19:43:18.951Z,73.00
2018-03-02T19:45:48.765Z,74.20
2018-03-02T19:48:17.562Z,74.20
2018-03-02T19:50:55.468Z,74.40
2018-03-02T19:53:24.248Z,74.40
2018-03-02T19:55:54.122Z,73.90
2018-03-02T19:58:25.972Z,75.10
2018-03-02T20:01:10.469Z,75.00
2018-03-02T20:03:42.457Z,74.20
2018-03-02T20:06:11.632Z,75.40
2018-03-02T20:08:41.463Z,76.20
2018-03-02T20:11:11.046Z,76.10
2018-03-02T20:13:40.177Z,76.10
2018-03-02T20:16:10.638Z,75.20
2018-03-02T20:18:40.474Z,76.30
2018-03-02T20:21:09.403Z,75.50
2018-03-02T20:23:37.777Z,76.60
2018-03-02T20:26:06.140Z,76.50
2018-03-02T20:28:34.615Z,76.60
2018-03-02T20:31:03.066Z,76.10
2018-03-02T20:33:31.812Z,76.10
2018-03-02T20:36:00.147Z,76.60
2018-03-02T20:38:29.078Z,77.30
2018-03-02T20:40:58.155Z,76.50
2018-03-02T20:43:26.423Z,76.40
2018-03-02T20:45:55.453Z,76.50
2018-03-02T20:48:23.762Z,76.30
2018-03-02T20:50:52.853Z,77.10
2018-03-02T20:53:21.261Z,77.10
2018-03-02T20:55:49.678Z,76.90
2018-03-02T20:58:18.008Z,76.30
2018-03-02T21:00:47.073Z,77.20
2018-03-02T21:03:15.416Z,77.10
2018-03-02T21:05:44.037Z,78.00
2018-03-02T21:08:13.101Z,79.00
2018-03-02T21:10:41.468Z,79.00
2018-03-02T21:13:09.810Z,78.90
2018-03-02T21:15:38.497Z,78.80
2018-03-02T21:18:06.759Z,79.30
2018-03-02T21:20:35.855Z,80.00
2018-03-02T21:23:04.155Z,79.80
2018-03-02T21:25:32.504Z,79.70
2018-03-02T21:28:02.047Z,79.50
2018-03-02T21:30:31.076Z,80.00
2018-03-02T21:32:59.364Z,80.60
2018-03-02T21:35:27.698Z,80.10
2018-03-02T21:37:57.392Z,80.20
2018-03-02T21:40:26.454Z,79.90
2018-03-02T21:42:54.752Z,79.90
2018-03-02T21:45:23.840Z,80.00
2018-03-02T21:47:53.610Z,80.70
2018-03-02T21:50:21.952Z,80.70
2018-03-02T21:52:50.997Z,80.90
2018-03-02T21:55:19.412Z,80.90
2018-03-02T21:57:47.680Z,80.60
2018-03-02T22:00:16.016Z,80.00
2018-03-02T22:02:44.334Z,80.20
2018-03-02T22:05:12.644Z,80.00
2018-03-02T22:07:41.703Z,80.80
2018-03-02T22:10:09.982Z,80.80
2018-03-02T22:12:38.387Z,81.20
2018-03-02T22:15:07.467Z,81.20
2018-03-02T22:17:35.721Z,81.20
2018-03-02T22:20:04.023Z,81.50
2018-03-02T22:22:32.343Z,82.50
2018-03-02T22:25:00.643Z,82.40
2018-03-02T22:27:28.921Z,81.10
2018-03-02T22:29:57.228Z,80.60
2018-03-02T22:32:25.577Z,80.10
2018-03-02T22:34:54.566Z,82.00
2018-03-02T22:37:22.849Z,81.80
2018-03-02T22:39:51.125Z,81.80
2018-03-02T22:42:19.387Z,82.30
2018-03-02T22:44:47.662Z,82.10
2018-03-02T22:47:16.002Z,81.20
2018-03-02T22:49:44.384Z,81.20
2018-03-02T22:52:12.648Z,81.00
2018-03-02T22:54:41.540Z,81.60
2018-03-02T22:57:09.928Z,80.90
2018-03-02T22:59:38.176Z,81.50
2018-03-02T23:02:06.462Z,82.40
2018-03-02T23:04:34.761Z,82.00
2018-03-02T23:07:03.037Z,82.80
2018-03-02T23:09:31.781Z,82.60
2018-03-02T23:12:00.048Z,82.50
2018-03-02T23:14:28.354Z,81.80
2018-03-02T23:16:56.623Z,81.70
2018-03-02T23:19:25.071Z,82.00
2018-03-02T23:21:53.390Z,81.80
2018-03-02T23:24:21.666Z,81.70
2018-03-02T23:26:49.957Z,81.60
2018-03-02T23:29:18.218Z,82.00
2018-03-02T23:31:47.377Z,82.20
2018-03-02T23:34:16.401Z,81.40
2018-03-02T23:36:44.682Z,81.40
2018-03-02T23:39:12.944Z,81.60
2018-03-02T23:41:41.248Z,82.20
2018-03-02T23:44:09.550Z,82.90
2018-03-02T23:46:37.811Z,83.10
2018-03-02T23:49:06.078Z,82.50
2018-03-02T23:51:34.663Z,82.80
2018-03-02T23:54:02.963Z,82.80
2018-03-02T23:56:31.237Z,83.10
2018-03-02T23:58:59.518Z,84.50
